Time;durP1;ratioP1;P1;durP2;ratioP2;P2;SDS_P1;SDS_P2;PMS_P1;PMS_P2;Temp;Humidity;BMP_temperature;BMP_pressure;BME280_temperature;BME280_humidity;BME280_pressure;Samples;Min_cycle;Max_cycle;Signal;HPM_P1;HPM_P2
2022/08/06 00:00:42;;;;;;;3.40;0.93;;;16.30;60.50;;;;;;5008738;28;20026;-67
2022/08/06 00:03:08;;;;;;;2.03;1.00;;;16.20;60.50;;;;;;5011074;28;20036;-67
2022/08/06 00:05:34;;;;;;;2.58;0.75;;;16.30;60.60;;;;;;5011571;28;20033;-66
2022/08/06 00:07:59;;;;;;;1.73;0.90;;;16.20;60.50;;;;;;5011475;28;20026;-67
2022/08/06 00:10:25;;;;;;;2.63;0.80;;;16.20;60.70;;;;;;5011339;28;20080;-67
2022/08/06 00:12:52;;;;;;;2.30;0.90;;;16.20;60.80;;;;;;5010042;28;20452;-67
2022/08/06 00:15:18;;;;;;;3.10;0.85;;;16.20;60.90;;;;;;5010981;28;20026;-67
2022/08/06 00:17:45;;;;;;;2.15;0.77;;;16.20;60.90;;;;;;5011002;28;20101;-67
2022/08/06 00:20:13;;;;;;;3.15;1.00;;;16.20;60.90;;;;;;5010777;28;20080;-67
2022/08/06 00:22:38;;;;;;;3.05;0.70;;;16.20;60.90;;;;;;5010998;28;20014;-67
2022/08/06 00:25:04;;;;;;;1.63;0.80;;;16.20;60.90;;;;;;5010629;28;20026;-67
2022/08/06 00:27:30;;;;;;;1.63;0.80;;;16.20;61.00;;;;;;5009678;28;20075;-67
2022/08/06 00:29:56;;;;;;;1.75;0.82;;;16.20;61.20;;;;;;5010887;28;20026;-66
2022/08/06 00:32:21;;;;;;;2.25;0.70;;;16.20;61.20;;;;;;5010678;28;20450;-67
2022/08/06 00:34:47;;;;;;;1.67;0.80;;;16.20;61.40;;;;;;5009590;28;20056;-67
2022/08/06 00:37:13;;;;;;;3.22;1.00;;;16.20;61.40;;;;;;5010729;28;20029;-66
2022/08/06 00:39:38;;;;;;;2.45;0.85;;;16.20;62.20;;;;;;5010851;28;20049;-67
2022/08/06 00:42:04;;;;;;;0.90;0.70;;;16.20;61.50;;;;;;5010471;28;20168;-67
2022/08/06 00:44:30;;;;;;;1.58;0.80;;;16.20;61.50;;;;;;5010759;28;20030;-67
2022/08/06 00:46:55;;;;;;;2.25;1.00;;;16.10;61.60;;;;;;5010332;28;20042;-67
2022/08/06 00:49:21;;;;;;;1.95;0.80;;;16.10;61.60;;;;;;5010746;28;20025;-67
2022/08/06 00:51:46;;;;;;;2.25;1.00;;;16.10;61.70;;;;;;5010443;28;20057;-66
2022/08/06 00:54:12;;;;;;;1.08;0.77;;;16.10;61.90;;;;;;5010445;28;20032;-66
2022/08/06 00:56:38;;;;;;;1.88;0.75;;;16.10;62.00;;;;;;5010396;28;20030;-68
2022/08/06 00:59:04;;;;;;;2.45;0.80;;;16.10;62.00;;;;;;5010474;28;20026;-67
2022/08/06 01:01:31;;;;;;;2.55;1.00;;;16.00;62.10;;;;;;5010325;28;20088;-67
2022/08/06 01:03:56;;;;;;;1.77;0.70;;;16.00;62.20;;;;;;5010305;28;20049;-67
2022/08/06 01:06:22;;;;;;;2.10;0.80;;;16.00;62.30;;;;;;5009677;28;20081;-67
2022/08/06 01:08:48;;;;;;;1.80;0.80;;;16.00;62.30;;;;;;5010138;28;20184;-67
2022/08/06 01:11:13;;;;;;;2.63;0.90;;;15.90;62.30;;;;;;5010439;28;20034;-67
2022/08/06 01:13:39;;;;;;;2.15;0.90;;;15.90;62.50;;;;;;5009966;28;20029;-67
2022/08/06 01:16:24;;;;;;;2.40;1.13;;;16.00;62.60;;;;;;5010138;28;20446;-66
2022/08/06 01:19:11;;;;;;;2.50;1.00;;;15.90;62.60;;;;;;5010057;28;20026;-67
2022/08/06 01:22:08;;;;;;;2.33;0.95;;;15.90;62.70;;;;;;5010182;28;20018;-67
2022/08/06 01:24:37;;;;;;;2.78;1.00;;;15.80;62.80;;;;;;5009842;28;20395;-67
2022/08/06 01:27:02;;;;;;;4.18;0.90;;;15.80;63.00;;;;;;5010072;28;20036;-66
2022/08/06 01:29:34;;;;;;;3.03;0.90;;;15.80;63.00;;;;;;5009790;28;20504;-67
2022/08/06 01:32:06;;;;;;;2.60;1.00;;;15.80;63.10;;;;;;5010240;28;20025;-66
2022/08/06 01:34:42;;;;;;;2.15;1.00;;;15.70;63.20;;;;;;5009729;28;20026;-67
2022/08/06 01:37:27;;;;;;;1.90;0.80;;;15.70;63.20;;;;;;5009963;28;20586;-66
2022/08/06 01:39:56;;;;;;;1.65;0.80;;;15.70;63.40;;;;;;5009957;28;20018;-66
2022/08/06 01:42:23;;;;;;;2.58;0.90;;;15.60;63.30;;;;;;5009827;28;20030;-67
2022/08/06 01:44:51;;;;;;;4.32;0.95;;;15.60;63.50;;;;;;5009595;28;20029;-67
2022/08/06 01:47:18;;;;;;;3.25;0.90;;;15.60;63.40;;;;;;5009875;28;20021;-66
2022/08/06 01:49:51;;;;;;;2.95;1.00;;;15.60;63.50;;;;;;5008385;28;20030;-67
2022/08/06 01:52:18;;;;;;;3.30;1.10;;;15.60;63.60;;;;;;5009816;28;20028;-67
2022/08/06 01:54:47;;;;;;;3.45;1.08;;;15.60;63.60;;;;;;5009464;28;20025;-67
2022/08/06 01:57:17;;;;;;;1.33;1.00;;;15.50;63.70;;;;;;5009843;28;20033;-67
2022/08/06 01:59:47;;;;;;;2.85;1.00;;;15.50;63.80;;;;;;5009744;28;20033;-67
2022/08/06 02:02:18;;;;;;;2.60;0.90;;;15.50;64.00;;;;;;5010022;28;20045;-67
2022/08/06 02:04:45;;;;;;;2.13;0.88;;;15.50;64.10;;;;;;5009957;28;20088;-67
2022/08/06 02:07:14;;;;;;;1.77;1.05;;;15.50;64.10;;;;;;5009756;28;20034;-66
2022/08/06 02:09:43;;;;;;;1.77;0.70;;;15.50;64.00;;;;;;5010071;28;20021;-66
2022/08/06 02:12:13;;;;;;;4.05;1.10;;;15.50;64.70;;;;;;5009863;28;20540;-65
2022/08/06 02:14:56;;;;;;;1.83;1.10;;;15.50;64.10;;;;;;5009673;28;20026;-66
2022/08/06 02:17:27;;;;;;;2.08;1.10;;;15.50;64.20;;;;;;5009748;28;20054;-67
2022/08/06 02:19:55;;;;;;;2.47;1.00;;;15.50;64.30;;;;;;5013665;28;20136;-66
2022/08/06 02:22:22;;;;;;;2.78;1.00;;;15.40;64.20;;;;;;5013368;28;20269;-66
2022/08/06 02:24:49;;;;;;;2.65;1.00;;;15.40;64.30;;;;;;5013478;28;20091;-66
2022/08/06 02:27:17;;;;;;;3.25;1.00;;;15.40;64.40;;;;;;5013339;28;20474;-66
2022/08/06 02:29:44;;;;;;;1.73;0.98;;;15.40;64.40;;;;;;5013423;28;20022;-66
2022/08/06 02:32:11;;;;;;;3.63;1.00;;;15.30;64.40;;;;;;5013187;28;20405;-66
2022/08/06 02:34:36;;;;;;;3.45;1.30;;;15.30;64.50;;;;;;5012880;28;20109;-66
2022/08/06 02:37:08;;;;;;;3.83;1.40;;;15.40;64.70;;;;;;5012072;28;20093;-66
2022/08/06 02:39:48;;;;;;;2.20;1.10;;;15.30;64.80;;;;;;5012646;28;20022;-66
2022/08/06 02:42:21;;;;;;;2.97;1.20;;;15.30;65.00;;;;;;5013175;28;20038;-66
2022/08/06 02:45:08;;;;;;;2.40;1.15;;;15.30;65.00;;;;;;5013043;28;20033;-66
2022/08/06 02:47:51;;;;;;;3.58;1.13;;;15.20;64.90;;;;;;5013104;28;20042;-66
2022/08/06 02:50:19;;;;;;;2.55;1.10;;;15.20;65.10;;;;;;5012860;28;20034;-66
2022/08/06 02:52:53;;;;;;;1.63;1.00;;;15.20;65.20;;;;;;5012871;28;20033;-67
2022/08/06 02:55:21;;;;;;;2.92;1.10;;;15.10;65.40;;;;;;5011336;28;20022;-67
2022/08/06 02:57:54;;;;;;;2.35;1.20;;;15.10;65.60;;;;;;5012696;28;20111;-66
2022/08/06 03:00:21;;;;;;;2.60;1.20;;;15.00;65.70;;;;;;5011128;28;20030;-66
2022/08/06 03:02:52;;;;;;;2.70;1.30;;;15.00;65.60;;;;;;5012920;28;20021;-66
2022/08/06 03:05:21;;;;;;;2.67;1.15;;;15.00;65.80;;;;;;5011151;28;20026;-66
2022/08/06 03:07:50;;;;;;;1.85;1.08;;;15.00;65.90;;;;;;5012672;28;20013;-66
2022/08/06 03:10:19;;;;;;;2.80;1.20;;;14.90;65.90;;;;;;5012437;28;20055;-66
2022/08/06 03:12:46;;;;;;;2.65;1.20;;;14.90;66.10;;;;;;5012436;28;20022;-67
2022/08/06 03:15:12;;;;;;;4.38;1.10;;;14.90;66.10;;;;;;5012216;28;20072;-66
2022/08/06 03:17:41;;;;;;;1.90;1.40;;;14.90;66.20;;;;;;5012586;28;20101;-66
2022/08/06 03:20:08;;;;;;;2.67;1.15;;;14.90;66.00;;;;;;5012277;28;20024;-66
2022/08/06 03:22:36;;;;;;;2.55;1.27;;;14.90;66.20;;;;;;5011127;28;20029;-66
2022/08/06 03:25:04;;;;;;;2.13;1.30;;;14.80;66.20;;;;;;5012118;28;20129;-67
2022/08/06 03:27:31;;;;;;;3.50;1.60;;;14.90;66.20;;;;;;5012149;28;20488;-67
2022/08/06 03:29:58;;;;;;;3.53;1.63;;;14.80;66.30;;;;;;5011443;28;20037;-67
2022/08/06 03:32:24;;;;;;;2.03;1.70;;;14.80;66.30;;;;;;5011943;28;20018;-68
2022/08/06 03:34:50;;;;;;;2.83;1.58;;;14.80;66.30;;;;;;5012013;28;20037;-67
2022/08/06 03:37:18;;;;;;;2.72;1.60;;;14.80;66.40;;;;;;5011936;28;20646;-67
2022/08/06 03:39:45;;;;;;;3.35;1.65;;;14.80;66.40;;;;;;5012052;28;20504;-67
2022/08/06 03:42:10;;;;;;;2.67;1.60;;;14.80;66.30;;;;;;5011619;28;20034;-67
2022/08/06 03:44:36;;;;;;;2.38;1.42;;;14.80;66.30;;;;;;5011974;28;20029;-67
2022/08/06 03:47:06;;;;;;;2.20;1.35;;;14.80;66.30;;;;;;5011914;28;20160;-67
2022/08/06 03:49:59;;;;;;;3.13;1.20;;;14.80;66.50;;;;;;5011847;28;20033;-68
2022/08/06 03:52:29;;;;;;;2.30;1.15;;;14.70;66.50;;;;;;5013027;28;20053;-68
2022/08/06 03:55:00;;;;;;;2.50;1.50;;;14.70;66.60;;;;;;5011607;28;20038;-68
2022/08/06 03:57:32;;;;;;;2.58;1.40;;;14.70;66.80;;;;;;5011572;28;20018;-67
2022/08/06 04:00:00;;;;;;;4.40;1.58;;;14.70;66.80;;;;;;5011848;28;20022;-68
2022/08/06 04:02:35;;;;;;;3.05;1.30;;;14.60;66.70;;;;;;5011473;28;20055;-68
2022/08/06 04:05:02;;;;;;;3.30;1.48;;;14.60;66.90;;;;;;5011431;28;20022;-68
2022/08/06 04:07:29;;;;;;;2.47;1.17;;;14.60;67.00;;;;;;5011431;28;20030;-68
2022/08/06 04:09:55;;;;;;;2.25;1.40;;;14.60;66.90;;;;;;5010216;28;20489;-68
2022/08/06 04:12:21;;;;;;;2.28;1.40;;;14.70;67.10;;;;;;5011409;28;20029;-68
2022/08/06 04:14:47;;;;;;;3.10;1.50;;;14.70;67.20;;;;;;5009781;28;20030;-68
2022/08/06 04:17:15;;;;;;;1.63;1.20;;;14.70;67.10;;;;;;5011365;28;20499;-68
2022/08/06 04:19:42;;;;;;;1.80;1.20;;;14.70;67.10;;;;;;5011036;28;20022;-67
2022/08/06 04:22:08;;;;;;;2.45;1.20;;;14.70;67.10;;;;;;5011407;28;20053;-67
2022/08/06 04:24:33;;;;;;;2.72;1.30;;;14.70;67.20;;;;;;5011085;28;20097;-67
2022/08/06 04:27:04;;;;;;;3.90;1.20;;;14.70;67.30;;;;;;5011278;28;20440;-67
2022/08/06 04:29:34;;;;;;;2.03;1.10;;;14.70;67.40;;;;;;5010989;28;20036;-67
2022/08/06 04:32:01;;;;;;;2.08;1.05;;;14.70;67.30;;;;;;5011263;28;20057;-67
2022/08/06 04:34:29;;;;;;;2.03;1.20;;;14.70;67.30;;;;;;5010846;28;20118;-67
2022/08/06 04:36:57;;;;;;;2.25;1.30;;;14.70;67.30;;;;;;5011382;28;20025;-67
2022/08/06 04:39:23;;;;;;;1.83;1.15;;;14.70;67.20;;;;;;5011258;28;20034;-67
2022/08/06 04:41:49;;;;;;;2.55;1.05;;;14.80;67.20;;;;;;5011423;28;20034;-67
2022/08/06 04:44:15;;;;;;;2.35;1.38;;;14.80;67.20;;;;;;5011454;28;20041;-67
2022/08/06 04:46:42;;;;;;;1.75;1.20;;;14.80;67.20;;;;;;5011469;28;20407;-68
2022/08/06 04:49:08;;;;;;;3.28;1.48;;;14.80;67.10;;;;;;5026112;28;20109;-67
2022/08/06 04:51:34;;;;;;;2.03;1.30;;;14.90;67.20;;;;;;5010962;28;20113;-67
2022/08/06 04:54:03;;;;;;;2.60;1.40;;;14.90;67.10;;;;;;5011131;28;20062;-67
2022/08/06 04:56:29;;;;;;;2.35;1.20;;;14.90;67.20;;;;;;5010873;28;20054;-67
2022/08/06 04:58:55;;;;;;;2.92;1.40;;;14.90;67.10;;;;;;5010792;28;20058;-67
2022/08/06 05:01:20;;;;;;;1.33;1.05;;;15.00;67.00;;;;;;5010394;28;20552;-67
2022/08/06 05:03:46;;;;;;;4.00;1.40;;;15.00;67.00;;;;;;5010497;28;20030;-67
2022/08/06 05:06:46;;;;;;;1.85;1.20;;;15.10;67.10;;;;;;5010433;28;20026;-66
2022/08/06 05:09:18;;;;;;;2.65;1.27;;;15.10;67.00;;;;;;5003089;28;20018;-66
2022/08/06 05:11:50;;;;;;;2.38;1.20;;;15.20;66.90;;;;;;5009935;28;20034;-66
2022/08/06 05:14:24;;;;;;;1.55;1.05;;;15.20;66.70;;;;;;5010699;28;20038;-67
2022/08/06 05:16:50;;;;;;;3.05;1.33;;;15.30;66.60;;;;;;5010044;28;20381;-67
2022/08/06 05:19:21;;;;;;;4.18;1.40;;;15.40;66.50;;;;;;5010250;28;20516;-67
2022/08/06 05:21:48;;;;;;;2.10;1.23;;;15.40;66.40;;;;;;5008726;28;20424;-67
2022/08/06 05:24:14;;;;;;;1.35;1.20;;;15.50;66.20;;;;;;5010632;28;20452;-67
2022/08/06 05:26:40;;;;;;;3.08;1.20;;;15.60;66.20;;;;;;5010025;28;20029;-67
2022/08/06 05:29:05;;;;;;;1.95;1.30;;;16.30;65.80;;;;;;5009726;28;20026;-67
2022/08/06 05:31:34;;;;;;;2.53;1.17;;;17.40;63.70;;;;;;5009813;28;20499;-67
2022/08/06 05:34:03;;;;;;;5.40;1.48;;;18.70;61.00;;;;;;5009457;28;20547;-67
2022/08/06 05:36:29;;;;;;;2.47;1.20;;;19.80;58.50;;;;;;5009823;28;20055;-67
2022/08/06 05:38:55;;;;;;;2.53;1.30;;;21.00;56.20;;;;;;5009842;28;20401;-67
2022/08/06 05:41:21;;;;;;;2.88;1.27;;;21.90;54.10;;;;;;5009808;28;20034;-67
2022/08/06 05:43:47;;;;;;;2.90;1.20;;;22.90;52.30;;;;;;5009621;28;20041;-67
2022/08/06 05:46:16;;;;;;;3.05;1.30;;;23.60;50.60;;;;;;5009829;28;20036;-67
2022/08/06 05:48:45;;;;;;;2.60;1.00;;;24.30;49.10;;;;;;5008367;28;20022;-66
2022/08/06 05:51:29;;;;;;;2.58;1.08;;;23.80;48.70;;;;;;5009706;28;20564;-66
2022/08/06 05:54:03;;;;;;;3.53;1.20;;;22.80;49.70;;;;;;5007753;28;20034;-66
2022/08/06 05:56:35;;;;;;;2.97;1.40;;;21.80;51.60;;;;;;5009786;28;20018;-67
2022/08/06 05:59:06;;;;;;;3.15;1.20;;;20.90;53.20;;;;;;5009690;28;20030;-67
2022/08/06 06:01:34;;;;;;;2.87;1.10;;;20.20;54.80;;;;;;5009567;28;20025;-67
2022/08/06 06:04:01;;;;;;;1.30;1.08;;;20.50;55.00;;;;;;5008441;28;20473;-67
2022/08/06 06:06:28;;;;;;;2.42;1.15;;;21.60;53.40;;;;;;5009631;28;20489;-67
2022/08/06 06:08:53;;;;;;;4.13;1.50;;;22.80;51.00;;;;;;5008234;28;20061;-67
2022/08/06 06:11:19;;;;;;;2.55;1.20;;;23.70;48.80;;;;;;5004692;28;20030;-66
2022/08/06 06:13:46;;;;;;;2.88;1.25;;;24.30;47.30;;;;;;5004484;28;20036;-67
2022/08/06 06:16:27;;;;;;;2.78;1.58;;;24.90;46.00;;;;;;5000881;28;20018;-67
2022/08/06 06:19:20;;;;;;;1.48;0.98;;;25.50;45.10;;;;;;5006613;28;20041;-66
2022/08/06 06:22:03;;;;;;;1.92;1.00;;;26.20;44.10;;;;;;5008248;28;20025;-66
2022/08/06 06:24:43;;;;;;;1.63;0.70;;;26.80;42.90;;;;;;5007356;28;20088;-67
2022/08/06 06:27:18;;;;;;;2.28;1.00;;;27.00;42.40;;;;;;5004757;28;20026;-67
2022/08/06 06:29:51;;;;;;;1.75;1.00;;;27.40;41.70;;;;;;5010739;28;20113;-66
2022/08/06 06:32:46;;;;;;;2.47;0.85;;;27.60;41.30;;;;;;5009809;28;20044;-66
2022/08/06 06:35:17;;;;;;;2.05;0.80;;;27.90;40.70;;;;;;5009910;28;20500;-67
2022/08/06 06:38:09;;;;;;;2.15;0.85;;;28.10;40.50;;;;;;5009560;28;20022;-66
2022/08/06 06:40:50;;;;;;;2.30;0.90;;;28.10;40.30;;;;;;5010368;28;20026;-67
2022/08/06 06:43:33;;;;;;;3.13;1.33;;;27.80;40.80;;;;;;5006509;28;20022;-67
2022/08/06 06:46:26;;;;;;;1.27;0.85;;;27.60;41.00;;;;;;5005791;28;20029;-67
2022/08/06 06:49:00;;;;;;;2.17;0.70;;;27.50;41.40;;;;;;5005247;28;20030;-67
2022/08/06 06:51:36;;;;;;;2.53;0.90;;;27.70;41.40;;;;;;5010036;28;20481;-67
2022/08/06 06:54:01;;;;;;;2.50;0.95;;;28.00;41.20;;;;;;5009674;28;20044;-67
2022/08/06 06:56:33;;;;;;;2.00;0.80;;;27.90;41.30;;;;;;5010092;28;20025;-66
2022/08/06 06:59:07;;;;;;;1.85;0.80;;;27.80;41.60;;;;;;5008953;28;20660;-66
2022/08/06 07:01:34;;;;;;;2.15;1.00;;;27.30;42.10;;;;;;5019573;28;20485;-66
2022/08/06 07:04:03;;;;;;;2.08;0.90;;;27.00;42.70;;;;;;5027782;28;20022;-66
2022/08/06 07:06:30;;;;;;;1.30;0.80;;;27.00;43.00;;;;;;5027867;28;20054;-66
2022/08/06 07:08:57;;;;;;;2.20;0.93;;;26.70;43.40;;;;;;5014235;28;20030;-66
2022/08/06 07:11:25;;;;;;;2.88;1.10;;;26.40;43.60;;;;;;5013889;28;20029;-66
2022/08/06 07:13:53;;;;;;;2.13;0.80;;;26.20;43.90;;;;;;5012423;28;20440;-67
2022/08/06 07:16:21;;;;;;;1.90;0.73;;;26.30;43.80;;;;;;5013944;28;20018;-66
2022/08/06 07:18:48;;;;;;;2.40;0.82;;;26.40;43.60;;;;;;5013947;28;20045;-66
2022/08/06 07:21:16;;;;;;;0.88;0.60;;;26.50;43.50;;;;;;5013712;28;20025;-66
2022/08/06 07:23:45;;;;;;;3.70;1.67;;;26.50;43.60;;;;;;5013713;28;20033;-66
2022/08/06 07:26:13;;;;;;;1.92;0.70;;;26.90;43.50;;;;;;5013478;28;20029;-66
2022/08/06 07:28:39;;;;;;;2.65;0.60;;;27.10;42.80;;;;;;5013318;28;20054;-67
2022/08/06 07:31:07;;;;;;;1.42;0.50;;;27.30;42.80;;;;;;5012980;28;20026;-67
2022/08/06 07:33:35;;;;;;;1.10;0.50;;;27.20;42.40;;;;;;5013016;28;20633;-66
2022/08/06 07:36:00;;;;;;;1.27;0.50;;;26.90;42.70;;;;;;5013020;28;20022;-66
2022/08/06 07:38:28;;;;;;;1.88;0.55;;;26.70;43.10;;;;;;5013153;28;20037;-66
2022/08/06 07:40:58;;;;;;;1.20;0.50;;;26.40;43.40;;;;;;5011405;28;20022;-66
2022/08/06 07:43:31;;;;;;;1.35;0.60;;;26.00;44.00;;;;;;5012847;28;20500;-67
2022/08/06 07:46:00;;;;;;;3.13;0.70;;;25.70;44.20;;;;;;5012633;28;20030;-66
2022/08/06 07:48:32;;;;;;;1.90;0.60;;;25.20;44.70;;;;;;5014084;28;20062;-66
2022/08/06 07:50:59;;;;;;;2.03;0.70;;;24.80;45.20;;;;;;5029242;28;20029;-67
2022/08/06 07:53:26;;;;;;;1.60;0.50;;;24.30;45.60;;;;;;5025763;28;20694;-67
2022/08/06 07:55:52;;;;;;;0.70;0.50;;;24.00;46.20;;;;;;5013442;28;20382;-67
2022/08/06 07:58:19;;;;;;;1.95;0.50;;;23.60;46.60;;;;;;5013372;28;20053;-66
2022/08/06 08:00:47;;;;;;;1.17;0.47;;;23.40;47.10;;;;;;5013295;28;20083;-67
2022/08/06 08:08:46;;;;;;;2.25;0.65;;;22.90;47.50;;;;;;5012868;28;20037;-67
2022/08/06 08:11:14;;;;;;;1.38;0.50;;;22.70;47.80;;;;;;5012498;28;20025;-67
2022/08/06 08:13:40;;;;;;;0.95;0.50;;;22.70;48.60;;;;;;5012079;28;20022;-67
2022/08/06 08:16:08;;;;;;;0.80;0.50;;;22.80;48.00;;;;;;5011948;28;20131;-67
2022/08/06 08:18:34;;;;;;;1.13;0.43;;;22.80;47.70;;;;;;5012262;28;20014;-67
2022/08/06 08:21:01;;;;;;;0.93;0.60;;;22.80;47.60;;;;;;5012159;28;20026;-67
2022/08/06 08:23:30;;;;;;;2.15;0.63;;;22.90;47.90;;;;;;5012059;28;20060;-67
2022/08/06 08:25:58;;;;;;;1.92;0.88;;;23.00;47.20;;;;;;5012142;28;20018;-67
2022/08/06 08:28:23;;;;;;;2.15;0.50;;;23.00;47.30;;;;;;5011842;28;20110;-67
2022/08/06 08:30:49;;;;;;;1.08;0.60;;;23.00;47.40;;;;;;5011894;28;20076;-67
2022/08/06 08:33:15;;;;;;;1.42;0.40;;;23.00;47.10;;;;;;5010056;28;20441;-67
2022/08/06 08:35:41;;;;;;;0.95;0.50;;;23.00;46.60;;;;;;5002121;28;20511;-67
2022/08/06 08:38:06;;;;;;;0.80;0.38;;;22.90;46.70;;;;;;5011381;28;20014;-67
2022/08/06 08:40:34;;;;;;;1.85;0.50;;;22.90;46.70;;;;;;5011548;28;20030;-67
2022/08/06 08:43:01;;;;;;;1.00;0.65;;;23.00;46.50;;;;;;5011519;28;20032;-67
2022/08/06 08:45:28;;;;;;;1.00;0.60;;;23.00;46.00;;;;;;5011607;28;20133;-67
2022/08/06 08:47:57;;;;;;;1.33;0.40;;;23.00;45.70;;;;;;5011665;28;20385;-67
2022/08/06 08:50:30;;;;;;;1.63;0.60;;;23.00;45.70;;;;;;5011293;28;20029;-66
2022/08/06 08:53:04;;;;;;;1.10;0.50;;;22.80;45.80;;;;;;5011569;28;20022;-67
2022/08/06 08:55:30;;;;;;;1.40;0.60;;;22.60;46.10;;;;;;5011393;28;20026;-66
2022/08/06 08:57:56;;;;;;;2.65;0.50;;;22.40;46.40;;;;;;5011514;28;20017;-67
2022/08/06 09:00:22;;;;;;;0.65;0.50;;;22.40;46.70;;;;;;5011404;28;20025;-67
2022/08/06 09:02:50;;;;;;;1.70;0.80;;;22.60;46.60;;;;;;5011356;28;20362;-67
2022/08/06 09:05:16;;;;;;;1.65;0.55;;;22.60;46.50;;;;;;5011039;28;20034;-67
2022/08/06 09:07:42;;;;;;;1.77;0.60;;;22.80;45.90;;;;;;5011386;28;20026;-66
2022/08/06 09:10:09;;;;;;;1.05;0.50;;;22.90;45.80;;;;;;5011113;28;20030;-67
2022/08/06 09:12:35;;;;;;;0.85;0.40;;;22.80;45.60;;;;;;5009852;28;20704;-67
2022/08/06 09:15:02;;;;;;;0.82;0.40;;;22.70;45.70;;;;;;5010899;28;20030;-67
2022/08/06 09:17:29;;;;;;;0.70;0.40;;;22.60;46.00;;;;;;5011318;28;20428;-67
2022/08/06 09:19:55;;;;;;;0.80;0.50;;;22.40;45.90;;;;;;5010961;28;20072;-67
2022/08/06 09:22:20;;;;;;;1.00;0.60;;;22.30;46.00;;;;;;5011390;28;20026;-67
2022/08/06 09:24:46;;;;;;;1.13;0.60;;;22.30;46.10;;;;;;5011026;28;20022;-67
2022/08/06 09:27:13;;;;;;;0.60;0.60;;;22.30;45.90;;;;;;5008990;28;20018;-67
2022/08/06 09:29:51;;;;;;;0.85;0.50;;;22.50;45.90;;;;;;5010980;28;20091;-67
2022/08/06 09:32:35;;;;;;;1.42;0.60;;;22.70;45.20;;;;;;5009638;28;20393;-67
2022/08/06 09:35:01;;;;;;;1.23;0.60;;;22.70;44.80;;;;;;5010908;28;20030;-66
2022/08/06 09:37:28;;;;;;;1.60;0.60;;;22.80;44.70;;;;;;5011054;28;20473;-66
2022/08/06 09:39:54;;;;;;;1.48;0.60;;;23.00;44.10;;;;;;5011173;28;20033;-66
2022/08/06 09:42:43;;;;;;;2.03;0.50;;;23.10;43.70;;;;;;5010591;28;20038;-66
2022/08/06 09:45:13;;;;;;;2.20;0.47;;;23.00;43.60;;;;;;5010806;28;20508;-66
2022/08/06 09:47:39;;;;;;;2.03;0.50;;;23.00;43.10;;;;;;5010732;28;20072;-66
2022/08/06 09:50:06;;;;;;;1.45;0.50;;;23.00;43.10;;;;;;5010665;28;20038;-66
2022/08/06 09:52:32;;;;;;;1.38;0.55;;;23.00;43.00;;;;;;5010594;28;20061;-66
2022/08/06 09:54:57;;;;;;;2.70;2.05;;;23.20;42.10;;;;;;5010368;28;20046;-66
2022/08/06 09:57:25;;;;;;;1.65;0.90;;;23.10;40.10;;;;;;5010474;28;20062;-66
2022/08/06 09:59:51;;;;;;;1.27;0.52;;;23.20;40.20;;;;;;5010639;28;20049;-66
2022/08/06 10:02:18;;;;;;;1.15;0.40;;;23.50;40.60;;;;;;5010467;28;20064;-66
2022/08/06 10:04:45;;;;;;;0.45;0.40;;;23.80;40.40;;;;;;5010024;28;20560;-66
2022/08/06 10:07:11;;;;;;;1.10;0.55;;;24.00;40.20;;;;;;5009259;28;20057;-67
2022/08/06 10:09:51;;;;;;;0.75;0.43;;;24.00;40.30;;;;;;5009870;28;20042;-66
2022/08/06 10:12:22;;;;;;;0.75;0.40;;;23.80;40.40;;;;;;4998658;28;20018;-67
2022/08/06 10:14:48;;;;;;;0.73;0.30;;;23.80;40.60;;;;;;4999189;28;20030;-66
2022/08/06 10:17:16;;;;;;;1.75;0.40;;;23.90;40.90;;;;;;4999185;28;20107;-67
2022/08/06 10:19:44;;;;;;;0.65;0.40;;;23.80;40.70;;;;;;4999840;28;20022;-68
2022/08/06 10:22:11;;;;;;;2.17;0.50;;;23.80;40.80;;;;;;5001049;28;20379;-67
2022/08/06 10:24:41;;;;;;;0.68;0.47;;;23.80;40.70;;;;;;4999675;28;20044;-67
2022/08/06 10:27:08;;;;;;;1.85;0.50;;;23.90;40.80;;;;;;4999577;28;20034;-67
2022/08/06 10:29:46;;;;;;;1.45;0.60;;;24.10;40.70;;;;;;4996953;28;20503;-67
2022/08/06 10:32:17;;;;;;;1.95;0.65;;;24.10;40.30;;;;;;4998734;28;20022;-68
2022/08/06 10:34:45;;;;;;;2.97;0.70;;;24.10;39.60;;;;;;4999392;28;20022;-67
2022/08/06 10:37:16;;;;;;;1.17;0.60;;;24.20;40.00;;;;;;4998212;28;20018;-68
2022/08/06 10:39:46;;;;;;;1.40;0.60;;;24.20;39.60;;;;;;5000020;28;20022;-65
2022/08/06 10:42:13;;;;;;;1.08;0.50;;;24.20;39.70;;;;;;5002125;28;20344;-65
2022/08/06 10:44:40;;;;;;;1.17;0.40;;;24.50;39.80;;;;;;5001703;28;20034;-66
2022/08/06 10:47:06;;;;;;;1.33;0.50;;;24.70;39.40;;;;;;5003744;28;20033;-66
2022/08/06 10:49:33;;;;;;;0.50;0.40;;;24.90;39.10;;;;;;5002586;28;20072;-66
2022/08/06 10:52:00;;;;;;;1.13;0.50;;;24.90;38.80;;;;;;5002952;28;20097;-67
2022/08/06 10:54:26;;;;;;;1.13;0.52;;;24.90;38.70;;;;;;5006446;28;20373;-66
2022/08/06 10:56:54;;;;;;;1.02;0.50;;;24.90;38.80;;;;;;5012610;28;20065;-66
2022/08/06 10:59:20;;;;;;;1.45;0.40;;;24.80;38.60;;;;;;5011861;28;20038;-66
2022/08/06 11:02:21;;;;;;;2.22;0.52;;;24.70;39.00;;;;;;5011820;28;20021;-66
2022/08/06 11:05:08;;;;;;;1.00;0.60;;;24.60;39.30;;;;;;5011979;28;20025;-67
2022/08/06 11:07:52;;;;;;;1.42;0.75;;;24.20;39.60;;;;;;5011950;28;20113;-66
2022/08/06 11:10:46;;;;;;;1.33;0.52;;;24.00;40.20;;;;;;5009229;28;20556;-66
2022/08/06 11:13:26;;;;;;;1.40;0.60;;;24.00;40.50;;;;;;5009244;28;20080;-67
2022/08/06 11:15:54;;;;;;;2.08;0.80;;;23.90;40.80;;;;;;5011065;28;20026;-67
2022/08/06 11:18:20;;;;;;;1.15;0.63;;;24.10;40.70;;;;;;5011557;28;20066;-68
2022/08/06 11:20:52;;;;;;;1.13;0.50;;;24.10;39.80;;;;;;5011772;28;20022;-66
2022/08/06 11:23:17;;;;;;;1.02;0.70;;;24.20;40.00;;;;;;5011279;28;20014;-67
2022/08/06 11:25:44;;;;;;;0.82;0.40;;;24.50;40.00;;;;;;5011668;28;20048;-67
2022/08/06 11:28:32;;;;;;;0.85;0.45;;;24.80;39.30;;;;;;5015096;28;20448;-67
2022/08/06 11:31:01;;;;;;;1.27;0.40;;;24.70;38.70;;;;;;4988059;28;20025;-67
2022/08/06 11:33:35;;;;;;;0.73;0.40;;;24.80;38.80;;;;;;5011291;28;20025;-65
2022/08/06 11:36:09;;;;;;;0.98;0.50;;;24.70;39.00;;;;;;5011327;28;20389;-66
2022/08/06 11:38:47;;;;;;;1.58;0.50;;;24.60;39.30;;;;;;5011338;28;20105;-66
2022/08/06 11:41:28;;;;;;;0.55;0.40;;;24.30;39.60;;;;;;5016013;28;20033;-66
2022/08/06 11:43:53;;;;;;;2.08;0.50;;;24.30;39.90;;;;;;5016714;28;20440;-66
2022/08/06 11:46:29;;;;;;;1.33;0.50;;;24.10;40.00;;;;;;5009646;28;20026;-66
2022/08/06 11:49:02;;;;;;;0.85;0.50;;;24.00;40.10;;;;;;5011236;28;20037;-66
2022/08/06 11:51:42;;;;;;;1.42;0.60;;;23.90;40.50;;;;;;5010424;28;20476;-67
2022/08/06 11:54:18;;;;;;;1.20;0.50;;;24.00;40.30;;;;;;5011076;28;20026;-67
2022/08/06 11:57:01;;;;;;;1.60;0.50;;;23.90;40.50;;;;;;5010908;28;20030;-67
2022/08/06 11:59:37;;;;;;;0.52;0.50;;;23.90;40.50;;;;;;5011412;28;20408;-68
2022/08/06 12:02:08;;;;;;;1.70;0.50;;;23.80;40.60;;;;;;5009858;28;20026;-67
2022/08/06 12:04:36;;;;;;;0.32;0.30;;;23.70;41.00;;;;;;5013795;28;20026;-66
2022/08/06 12:07:17;;;;;;;1.02;0.60;;;23.70;41.20;;;;;;5010708;28;20036;-67
2022/08/06 12:09:47;;;;;;;1.23;0.50;;;23.80;41.10;;;;;;5011198;28;20076;-67
2022/08/06 12:12:24;;;;;;;1.65;0.60;;;23.80;40.70;;;;;;5010133;28;20037;-67
2022/08/06 12:14:51;;;;;;;2.10;0.40;;;23.70;41.40;;;;;;5010533;28;20033;-67
2022/08/06 12:17:19;;;;;;;0.85;0.43;;;23.50;40.90;;;;;;5010678;28;20014;-67
2022/08/06 12:19:46;;;;;;;0.90;0.40;;;23.60;41.10;;;;;;5010365;28;20488;-67
2022/08/06 12:22:16;;;;;;;1.13;0.50;;;23.70;41.00;;;;;;5006911;28;20022;-67
2022/08/06 12:24:48;;;;;;;1.05;0.55;;;23.70;41.00;;;;;;5010587;28;20062;-67
2022/08/06 12:27:14;;;;;;;0.95;0.55;;;23.80;41.10;;;;;;5010134;28;20101;-67
2022/08/06 12:29:40;;;;;;;0.88;0.50;;;23.80;40.70;;;;;;5010501;28;20030;-67
2022/08/06 12:32:30;;;;;;;1.13;0.50;;;23.80;40.40;;;;;;5010375;28;20665;-67
2022/08/06 12:35:02;;;;;;;0.45;0.40;;;23.50;40.70;;;;;;5010133;28;20022;-67
2022/08/06 12:37:39;;;;;;;0.77;0.40;;;23.60;40.90;;;;;;5010694;28;20481;-67
2022/08/06 12:40:26;;;;;;;0.95;0.50;;;23.80;40.80;;;;;;5009713;28;20018;-67
2022/08/06 12:43:14;;;;;;;1.10;0.60;;;23.90;40.30;;;;;;5010134;28;20038;-67
2022/08/06 12:45:40;;;;;;;1.40;0.45;;;24.10;40.30;;;;;;5008706;28;20041;-67
2022/08/06 12:48:10;;;;;;;1.02;0.50;;;24.40;39.00;;;;;;5010796;28;20057;-67
2022/08/06 12:50:38;;;;;;;1.65;0.50;;;24.80;38.50;;;;;;5009650;28;20476;-67
2022/08/06 12:53:16;;;;;;;0.73;0.50;;;25.30;37.50;;;;;;5009858;28;20101;-68
2022/08/06 12:55:47;;;;;;;1.30;0.50;;;25.60;37.10;;;;;;5009699;28;20029;-67
2022/08/06 12:58:16;;;;;;;1.97;0.60;;;25.50;35.90;;;;;;5008462;28;20026;-67
2022/08/06 13:00:45;;;;;;;1.05;0.60;;;25.50;35.80;;;;;;5013250;28;20773;-67
2022/08/06 13:03:12;;;;;;;1.27;0.70;;;25.20;36.50;;;;;;5008685;28;20490;-67
2022/08/06 13:05:38;;;;;;;1.05;0.60;;;24.90;36.90;;;;;;5009546;28;20030;-67
2022/08/06 13:08:04;;;;;;;0.63;0.50;;;24.60;37.50;;;;;;5009457;28;20072;-67